Terminal Aerodrome Forecast
Issued by NWS Knoxville/Tri Cities, TN

Home | Current Version | Previous Version | Text Only | Print | Product List | Glossary On
Versions: 1 2 3 4 5 6 7 8 9 10 11 12 13 14 15 16 17 18 19 20 21 22 23 24 25
877
FTUS44 KMRX 251720
TAFTRI
TAF
KTRI 251720Z 2518/2618 27006KT P6SM VCTS SCT050CB
     FM260300 00000KT P6SM SCT060
     FM260900 00000KT 5SM BR FEW100
     FM261300 00000KT P6SM FEW100=

USA.gov is the U.S. government's official web portal to all federal, state and local government web resources and services.